Time;durP1;ratioP1;P1;durP2;ratioP2;P2;SDS_P1;SDS_P2;PMS_P1;PMS_P2;Temp;Humidity;BMP_temperature;BMP_pressure;BME280_temperature;BME280_humidity;BME280_pressure;Samples;Min_cycle;Max_cycle;Signal;HPM_P1;HPM_P2
2023/06/25 00:00:21;;;;;;;11.77;9.45;;;19.80;99.90;;;;;;5032151;28;20133;-72
2023/06/25 00:02:47;;;;;;;11.80;9.13;;;19.80;99.90;;;;;;5031953;28;20053;-72
2023/06/25 00:05:13;;;;;;;9.77;8.60;;;19.80;99.90;;;;;;5031812;28;20048;-72
2023/06/25 00:07:40;;;;;;;12.35;10.23;;;19.70;99.90;;;;;;5031877;28;20037;-71
2023/06/25 00:10:06;;;;;;;11.10;9.32;;;19.70;99.90;;;;;;5031874;28;20088;-72
2023/06/25 00:12:33;;;;;;;11.38;9.35;;;19.70;99.90;;;;;;5031885;28;20053;-72
2023/06/25 00:14:58;;;;;;;11.95;9.02;;;19.70;99.90;;;;;;5031816;28;20041;-72
2023/06/25 00:17:27;;;;;;;12.63;9.48;;;19.70;99.90;;;;;;5031746;28;20033;-72
2023/06/25 00:19:56;;;;;;;11.82;9.75;;;19.70;99.90;;;;;;5031783;28;20049;-72
2023/06/25 00:22:23;;;;;;;11.48;8.80;;;19.60;99.90;;;;;;5031695;28;20061;-72
2023/06/25 00:24:49;;;;;;;11.60;8.55;;;19.60;99.90;;;;;;5032989;28;20041;-72
2023/06/25 00:27:15;;;;;;;11.15;8.95;;;19.60;99.90;;;;;;5031663;28;20124;-72
2023/06/25 00:29:40;;;;;;;13.63;8.90;;;19.60;99.90;;;;;;5031637;28;20033;-72
2023/06/25 00:32:06;;;;;;;9.63;8.55;;;19.50;99.90;;;;;;5031691;28;20045;-72
2023/06/25 00:34:41;;;;;;;10.45;7.80;;;19.50;99.90;;;;;;5031621;28;20056;-72
2023/06/25 00:37:16;;;;;;;9.50;8.52;;;19.50;99.90;;;;;;5034528;28;20046;-72
2023/06/25 00:39:45;;;;;;;11.68;8.68;;;19.50;99.90;;;;;;5035641;28;20053;-72
2023/06/25 00:42:11;;;;;;;11.93;8.95;;;19.50;99.90;;;;;;5035487;28;20045;-72
2023/06/25 00:44:40;;;;;;;10.63;8.77;;;19.50;99.90;;;;;;5035473;28;20422;-72
2023/06/25 00:47:12;;;;;;;11.25;8.90;;;19.50;99.90;;;;;;5035413;28;20112;-72
2023/06/25 00:49:47;;;;;;;11.30;8.60;;;19.50;99.90;;;;;;5035678;28;20071;-72
2023/06/25 00:52:14;;;;;;;10.13;9.13;;;19.50;99.90;;;;;;5035392;28;20084;-72
2023/06/25 00:54:42;;;;;;;11.55;9.25;;;19.40;99.90;;;;;;5035320;28;20045;-72
2023/06/25 00:57:09;;;;;;;13.10;8.90;;;19.40;99.90;;;;;;5035410;28;20057;-72
2023/06/25 00:59:39;;;;;;;11.98;9.52;;;19.40;99.90;;;;;;5035496;28;20060;-72
2023/06/25 01:02:29;;;;;;;11.45;9.00;;;19.40;99.90;;;;;;5035118;28;20406;-72
2023/06/25 01:05:11;;;;;;;12.13;8.93;;;19.40;99.90;;;;;;5036993;28;20034;-72
2023/06/25 01:07:43;;;;;;;12.35;9.32;;;19.30;99.90;;;;;;5035484;28;20565;-72
2023/06/25 01:10:11;;;;;;;11.55;9.60;;;19.20;99.90;;;;;;5035062;28;20137;-72
2023/06/25 01:12:37;;;;;;;12.80;9.65;;;19.20;99.90;;;;;;5035268;28;20144;-72
2023/06/25 01:15:04;;;;;;;12.57;9.52;;;19.20;99.90;;;;;;5034935;28;20049;-72
2023/06/25 01:17:29;;;;;;;10.60;9.32;;;19.20;99.90;;;;;;5034837;28;20045;-71
2023/06/25 01:19:55;;;;;;;12.82;10.10;;;19.20;99.90;;;;;;5034864;28;20116;-71
2023/06/25 01:22:31;;;;;;;11.15;9.65;;;19.20;99.90;;;;;;5035998;28;20037;-71
2023/06/25 01:24:58;;;;;;;11.13;9.70;;;19.20;99.90;;;;;;5034728;28;20490;-71
2023/06/25 01:27:23;;;;;;;10.95;9.77;;;19.20;99.90;;;;;;5034927;28;20045;-72
2023/06/25 01:29:50;;;;;;;11.57;9.80;;;19.20;99.90;;;;;;5034913;28;20371;-72
2023/06/25 01:32:17;;;;;;;13.43;9.27;;;19.20;99.90;;;;;;5034922;28;20049;-71
2023/06/25 01:34:43;;;;;;;13.02;9.73;;;19.10;99.90;;;;;;5034510;28;20387;-71
2023/06/25 01:37:08;;;;;;;12.20;10.18;;;19.00;99.90;;;;;;5034667;28;20049;-71
2023/06/25 01:39:34;;;;;;;11.70;9.88;;;19.00;99.90;;;;;;5034518;28;20566;-72
2023/06/25 01:41:59;;;;;;;13.43;9.95;;;19.00;99.90;;;;;;5034468;28;20045;-72
2023/06/25 01:44:27;;;;;;;12.27;10.32;;;19.00;99.90;;;;;;5035856;28;20394;-72
2023/06/25 01:46:53;;;;;;;13.00;9.90;;;19.00;99.90;;;;;;5034248;28;20093;-71
2023/06/25 01:49:19;;;;;;;11.73;9.77;;;18.90;99.90;;;;;;5033653;28;20509;-71
2023/06/25 01:51:44;;;;;;;11.77;9.48;;;18.90;99.90;;;;;;5035502;28;20135;-71
2023/06/25 01:54:10;;;;;;;12.73;9.82;;;18.80;99.90;;;;;;5035452;28;20033;-71
2023/06/25 01:56:36;;;;;;;10.32;9.23;;;18.80;99.90;;;;;;5034243;28;20042;-71
2023/06/25 01:59:02;;;;;;;14.27;10.60;;;18.80;99.90;;;;;;5034633;28;20487;-72
2023/06/25 02:01:27;;;;;;;9.10;8.18;;;18.80;99.90;;;;;;5034063;28;20514;-72
2023/06/25 02:03:53;;;;;;;12.20;9.48;;;18.70;99.90;;;;;;5035285;28;20048;-72
2023/06/25 02:06:19;;;;;;;14.07;10.05;;;18.80;99.90;;;;;;5033994;28;20041;-71
2023/06/25 02:08:44;;;;;;;12.85;10.20;;;18.70;99.90;;;;;;5033959;28;20073;-71
2023/06/25 02:11:10;;;;;;;12.20;10.40;;;18.70;99.90;;;;;;5034220;28;20080;-71
2023/06/25 02:13:35;;;;;;;11.35;10.13;;;18.70;99.90;;;;;;5033899;28;20497;-71
2023/06/25 02:16:01;;;;;;;13.45;10.30;;;18.60;99.90;;;;;;5033761;28;20064;-71
2023/06/25 02:18:28;;;;;;;16.25;9.85;;;18.60;99.90;;;;;;5033909;28;20042;-71
2023/06/25 02:20:54;;;;;;;14.35;9.63;;;18.60;99.90;;;;;;5033749;28;20046;-71
2023/06/25 02:23:20;;;;;;;13.50;10.05;;;18.60;99.90;;;;;;5034952;28;20040;-71
2023/06/25 02:25:46;;;;;;;11.98;9.35;;;18.60;99.90;;;;;;5033627;28;20033;-71
2023/06/25 02:28:12;;;;;;;13.32;9.30;;;18.60;99.90;;;;;;5035081;28;20042;-72
2023/06/25 02:30:37;;;;;;;10.50;9.40;;;18.60;99.90;;;;;;5033535;28;20087;-71
2023/06/25 02:33:03;;;;;;;11.30;9.95;;;18.60;99.90;;;;;;5033477;28;20052;-71
2023/06/25 02:35:28;;;;;;;14.18;9.55;;;18.60;99.90;;;;;;5033387;28;20053;-71
2023/06/25 02:37:54;;;;;;;11.27;10.05;;;18.60;99.90;;;;;;5033436;28;20052;-71
2023/06/25 02:40:22;;;;;;;12.43;10.43;;;18.60;99.90;;;;;;5034824;28;20037;-71
2023/06/25 02:42:47;;;;;;;11.43;9.57;;;18.60;99.90;;;;;;5033597;28;20056;-71
2023/06/25 02:45:13;;;;;;;12.98;10.52;;;18.60;99.90;;;;;;5033174;28;20418;-71
2023/06/25 02:47:39;;;;;;;12.02;10.05;;;18.50;99.90;;;;;;5033234;28;20121;-71
2023/06/25 02:50:05;;;;;;;12.27;10.52;;;18.50;99.90;;;;;;5033194;28;20092;-71
2023/06/25 02:52:31;;;;;;;11.93;10.45;;;18.50;99.90;;;;;;5033111;28;20124;-72
2023/06/25 02:54:56;;;;;;;12.55;11.15;;;18.50;99.90;;;;;;5032951;28;20120;-72
2023/06/25 02:57:29;;;;;;;13.02;11.05;;;18.40;99.90;;;;;;5033257;28;20047;-71
2023/06/25 02:59:55;;;;;;;13.68;10.80;;;18.40;99.90;;;;;;5031976;28;20099;-71
2023/06/25 03:02:20;;;;;;;14.68;10.85;;;18.40;99.90;;;;;;5032883;28;20120;-71
2023/06/25 03:04:46;;;;;;;11.75;10.55;;;18.40;99.90;;;;;;5033147;28;20125;-71
2023/06/25 03:07:12;;;;;;;13.07;10.38;;;18.40;99.90;;;;;;5032763;28;20540;-71
2023/06/25 03:09:38;;;;;;;14.48;10.93;;;18.30;99.90;;;;;;5032951;28;20120;-71
2023/06/25 03:12:04;;;;;;;13.15;10.45;;;18.40;99.90;;;;;;5032705;28;20421;-71
2023/06/25 03:14:30;;;;;;;14.10;10.88;;;18.30;99.90;;;;;;5032696;28;20532;-71
2023/06/25 03:16:55;;;;;;;12.85;11.55;;;18.30;99.90;;;;;;5032601;28;20077;-72
2023/06/25 03:19:21;;;;;;;13.18;10.40;;;18.30;99.90;;;;;;5032563;28;20124;-71
2023/06/25 03:21:47;;;;;;;13.32;11.23;;;18.30;99.90;;;;;;5032624;28;20132;-71
2023/06/25 03:24:13;;;;;;;13.00;11.45;;;18.30;99.90;;;;;;5032533;28;20045;-72
2023/06/25 03:26:38;;;;;;;13.40;11.32;;;18.20;99.90;;;;;;5032938;28;20033;-72
2023/06/25 03:29:04;;;;;;;15.55;12.15;;;18.30;99.90;;;;;;5032405;28;20072;-72
2023/06/25 03:31:30;;;;;;;14.30;11.32;;;18.20;99.90;;;;;;5032452;28;20045;-72
2023/06/25 03:33:55;;;;;;;13.48;11.57;;;18.20;99.90;;;;;;5033623;28;20044;-72
2023/06/25 03:36:22;;;;;;;13.48;11.25;;;18.20;99.90;;;;;;5032568;28;20417;-72
2023/06/25 03:38:47;;;;;;;15.35;12.02;;;18.20;99.90;;;;;;5032546;28;20049;-72
2023/06/25 03:41:13;;;;;;;13.27;11.05;;;18.30;99.90;;;;;;5032403;28;20053;-72
2023/06/25 03:43:38;;;;;;;12.77;11.30;;;18.20;99.90;;;;;;5032213;28;20044;-72
2023/06/25 03:46:04;;;;;;;13.18;11.38;;;18.20;99.90;;;;;;5033612;28;20063;-71
2023/06/25 03:48:30;;;;;;;13.40;11.07;;;18.20;99.90;;;;;;5032137;28;20112;-71
2023/06/25 03:50:55;;;;;;;12.10;10.32;;;18.30;99.90;;;;;;5032147;28;20041;-71
2023/06/25 03:53:21;;;;;;;13.50;11.23;;;18.30;99.90;;;;;;5032143;28;20041;-71
2023/06/25 03:55:47;;;;;;;14.57;11.60;;;18.30;99.90;;;;;;5031964;28;20041;-71
2023/06/25 03:58:12;;;;;;;12.85;11.18;;;18.20;99.90;;;;;;5032037;28;20048;-71
2023/06/25 04:00:38;;;;;;;16.48;12.07;;;18.30;99.90;;;;;;5031929;28;20055;-71
2023/06/25 04:03:03;;;;;;;12.88;11.40;;;18.30;99.90;;;;;;5031963;28;20045;-71
2023/06/25 04:05:29;;;;;;;12.57;11.20;;;18.20;99.90;;;;;;5032026;28;20042;-71
2023/06/25 04:07:55;;;;;;;15.18;11.15;;;18.20;99.90;;;;;;5033394;28;20069;-71
2023/06/25 04:10:21;;;;;;;14.40;11.90;;;18.20;99.90;;;;;;5031724;28;20073;-71
2023/06/25 04:12:46;;;;;;;14.70;12.00;;;18.30;99.90;;;;;;5031818;28;20094;-71
2023/06/25 04:15:12;;;;;;;16.63;12.35;;;18.30;99.90;;;;;;5031885;28;20041;-71
2023/06/25 04:17:39;;;;;;;13.30;11.90;;;18.30;99.90;;;;;;5032042;28;20041;-71
2023/06/25 04:20:06;;;;;;;13.73;12.30;;;18.30;99.90;;;;;;5032051;28;20053;-71
2023/06/25 04:22:31;;;;;;;13.38;11.85;;;18.40;99.90;;;;;;5031726;28;20124;-71
2023/06/25 04:24:57;;;;;;;15.85;12.25;;;18.40;99.90;;;;;;5031729;28;20128;-71
2023/06/25 04:27:23;;;;;;;14.65;12.18;;;18.40;99.90;;;;;;5031907;28;20037;-71
2023/06/25 04:29:48;;;;;;;16.05;12.63;;;18.50;99.90;;;;;;5031943;28;20406;-71
2023/06/25 04:32:14;;;;;;;18.42;12.68;;;18.50;99.90;;;;;;5031691;28;20067;-71
2023/06/25 04:34:39;;;;;;;14.35;12.80;;;18.50;99.90;;;;;;5031681;28;20045;-72
2023/06/25 04:37:05;;;;;;;17.25;13.25;;;18.60;99.90;;;;;;5031596;28;20064;-72
2023/06/25 04:39:31;;;;;;;16.02;13.27;;;18.60;99.90;;;;;;5031903;28;20413;-72
2023/06/25 04:41:56;;;;;;;17.02;13.95;;;18.60;99.90;;;;;;5031444;28;20457;-72
2023/06/25 04:44:22;;;;;;;17.00;13.85;;;18.70;99.90;;;;;;5031547;28;20044;-72
2023/06/25 04:46:47;;;;;;;15.27;12.40;;;18.70;99.90;;;;;;5031415;28;20041;-71
2023/06/25 04:49:13;;;;;;;17.85;14.40;;;18.70;99.90;;;;;;5031495;28;20150;-71
2023/06/25 04:51:39;;;;;;;16.25;13.25;;;18.80;99.90;;;;;;5031475;28;20041;-71
2023/06/25 04:54:05;;;;;;;15.27;13.38;;;18.80;99.90;;;;;;5031775;28;20057;-71
2023/06/25 04:56:30;;;;;;;15.15;13.18;;;18.90;99.90;;;;;;5031288;28;20417;-71
2023/06/25 04:58:56;;;;;;;17.13;13.40;;;19.00;99.90;;;;;;5032664;28;20091;-71
2023/06/25 05:01:23;;;;;;;14.77;13.20;;;19.00;99.90;;;;;;5032615;28;20134;-71
2023/06/25 05:03:48;;;;;;;13.90;12.50;;;19.10;99.90;;;;;;5031377;28;20052;-72
2023/06/25 05:06:14;;;;;;;13.73;12.30;;;19.10;99.90;;;;;;5031313;28;20038;-72
2023/06/25 05:08:40;;;;;;;14.70;12.10;;;19.20;99.90;;;;;;5031291;28;20044;-71
2023/06/25 05:11:05;;;;;;;15.02;12.30;;;19.20;99.90;;;;;;5031354;28;20083;-71
2023/06/25 05:13:31;;;;;;;17.20;13.55;;;19.30;99.90;;;;;;5031290;28;20037;-71
2023/06/25 05:15:57;;;;;;;17.45;12.55;;;19.30;99.90;;;;;;5032000;28;20080;-71
2023/06/25 05:18:22;;;;;;;16.10;12.40;;;19.40;99.90;;;;;;5033011;28;20033;-71
2023/06/25 05:20:48;;;;;;;14.90;11.93;;;19.40;99.90;;;;;;5014760;28;20104;-71
2023/06/25 05:23:14;;;;;;;16.35;12.07;;;19.50;99.90;;;;;;5032780;28;20045;-71
2023/06/25 05:25:39;;;;;;;15.80;12.07;;;19.50;99.90;;;;;;5034770;28;20490;-72
2023/06/25 05:28:05;;;;;;;17.95;11.98;;;19.60;99.90;;;;;;5034804;28;20044;-72
2023/06/25 05:30:32;;;;;;;13.38;11.23;;;19.70;99.90;;;;;;5034989;28;20038;-72
2023/06/25 05:32:57;;;;;;;13.15;11.13;;;19.70;99.90;;;;;;5034917;28;20041;-72
2023/06/25 05:35:23;;;;;;;15.45;10.73;;;19.80;99.90;;;;;;5034687;28;20045;-72
2023/06/25 05:37:49;;;;;;;14.57;10.93;;;19.90;99.90;;;;;;5034798;28;20082;-72
2023/06/25 05:40:15;;;;;;;13.50;11.30;;;19.90;99.90;;;;;;5034542;28;20041;-72
2023/06/25 05:42:41;;;;;;;12.63;10.90;;;20.00;99.90;;;;;;5034393;28;20054;-72
2023/06/25 05:45:08;;;;;;;12.52;10.95;;;20.00;99.90;;;;;;5035970;28;20038;-72
2023/06/25 05:47:33;;;;;;;15.27;10.70;;;20.10;99.90;;;;;;5034245;28;20046;-71
2023/06/25 05:49:59;;;;;;;13.93;10.30;;;20.20;99.90;;;;;;5034338;28;20043;-71
2023/06/25 05:52:24;;;;;;;11.75;9.88;;;20.20;99.90;;;;;;5035679;28;20091;-72
2023/06/25 05:54:50;;;;;;;12.82;9.95;;;20.30;99.90;;;;;;5034098;28;20549;-76
2023/06/25 05:57:16;;;;;;;12.40;9.85;;;20.30;99.90;;;;;;5034084;28;20033;-76
2023/06/25 05:59:41;;;;;;;10.88;9.55;;;20.50;99.90;;;;;;5034358;28;20049;-71
2023/06/25 06:02:08;;;;;;;10.77;9.63;;;20.60;99.90;;;;;;5034147;28;20045;-71
2023/06/25 06:04:34;;;;;;;10.50;8.82;;;20.70;99.90;;;;;;5033975;28;20485;-71
2023/06/25 06:07:00;;;;;;;11.93;8.82;;;20.70;99.90;;;;;;5034154;28;20057;-71
2023/06/25 06:09:25;;;;;;;14.07;9.20;;;20.80;99.90;;;;;;5034171;28;20049;-71
2023/06/25 06:11:51;;;;;;;12.57;9.60;;;20.90;99.90;;;;;;5033935;28;20516;-71
2023/06/25 06:14:17;;;;;;;12.52;10.25;;;21.00;99.90;;;;;;5033957;28;20080;-71
2023/06/25 06:16:42;;;;;;;10.15;8.75;;;21.10;99.90;;;;;;5033814;28;20107;-71
2023/06/25 06:19:08;;;;;;;12.00;9.25;;;21.20;99.90;;;;;;5033811;28;20041;-71
2023/06/25 06:21:33;;;;;;;11.43;10.02;;;21.30;99.90;;;;;;5033782;28;20097;-71
2023/06/25 06:23:59;;;;;;;10.38;9.35;;;21.30;99.90;;;;;;5033963;28;20545;-71
2023/06/25 06:26:26;;;;;;;12.70;9.65;;;21.40;99.90;;;;;;5033616;28;20044;-71
2023/06/25 06:28:52;;;;;;;11.10;8.90;;;21.60;99.90;;;;;;5033524;28;20049;-71
2023/06/25 06:31:20;;;;;;;13.13;10.25;;;21.60;99.90;;;;;;5034805;28;20049;-72
2023/06/25 06:33:46;;;;;;;13.52;9.27;;;21.70;99.90;;;;;;5016762;28;20497;-72
2023/06/25 06:36:12;;;;;;;11.55;8.77;;;21.80;99.90;;;;;;5033619;28;20050;-72
2023/06/25 06:38:38;;;;;;;16.63;10.43;;;21.90;99.90;;;;;;5033370;28;20425;-72
2023/06/25 06:41:03;;;;;;;12.93;11.07;;;22.00;99.90;;;;;;5034807;28;20045;-72
2023/06/25 06:43:30;;;;;;;11.10;9.88;;;22.10;99.90;;;;;;5033287;28;20033;-72
2023/06/25 06:45:55;;;;;;;15.27;10.32;;;22.10;99.90;;;;;;5033194;28;20073;-72
2023/06/25 06:48:21;;;;;;;13.73;11.23;;;22.20;99.90;;;;;;5033159;28;20044;-72
2023/06/25 06:50:47;;;;;;;11.90;10.68;;;22.30;99.80;;;;;;5033116;28;20041;-71
2023/06/25 06:53:13;;;;;;;13.63;12.30;;;22.40;99.50;;;;;;5033077;28;20045;-71
2023/06/25 06:55:38;;;;;;;11.88;10.65;;;22.50;99.00;;;;;;5034702;28;20048;-71
2023/06/25 06:58:04;;;;;;;11.18;10.10;;;22.50;98.80;;;;;;5032962;28;20037;-71
2023/06/25 07:00:30;;;;;;;11.60;10.30;;;22.60;98.50;;;;;;5033261;28;20102;-71
2023/06/25 07:02:57;;;;;;;12.13;10.82;;;22.70;98.40;;;;;;5033027;28;20048;-71
2023/06/25 07:05:23;;;;;;;17.73;11.38;;;22.80;98.40;;;;;;5032844;28;20044;-71
2023/06/25 07:07:49;;;;;;;13.63;11.52;;;22.90;98.30;;;;;;5032879;28;20120;-71
2023/06/25 07:10:14;;;;;;;13.40;11.10;;;23.00;98.20;;;;;;5032817;28;20148;-71
2023/06/25 07:12:40;;;;;;;15.13;11.07;;;23.10;97.90;;;;;;5032785;28;20095;-72
2023/06/25 07:15:06;;;;;;;12.60;11.00;;;23.10;97.70;;;;;;5032688;28;20053;-71
2023/06/25 07:17:32;;;;;;;13.35;11.52;;;23.20;97.60;;;;;;5032594;28;20390;-72
2023/06/25 07:19:57;;;;;;;13.93;10.18;;;23.30;97.40;;;;;;5032642;28;20103;-71
2023/06/25 07:22:23;;;;;;;12.05;10.70;;;23.40;96.90;;;;;;5033804;28;20037;-70
2023/06/25 07:24:48;;;;;;;12.50;11.02;;;23.50;96.80;;;;;;5032837;28;20045;-71
2023/06/25 07:27:14;;;;;;;12.70;11.20;;;23.60;96.20;;;;;;5033952;28;20475;-71
2023/06/25 07:29:40;;;;;;;15.20;10.98;;;23.70;96.00;;;;;;5032483;28;20087;-71
2023/06/25 07:32:06;;;;;;;13.73;10.50;;;23.70;95.60;;;;;;5032733;28;20049;-71
2023/06/25 07:34:32;;;;;;;12.32;9.93;;;23.90;95.30;;;;;;5032403;28;20037;-71
2023/06/25 07:36:57;;;;;;;15.15;10.77;;;24.00;95.60;;;;;;5033474;28;20128;-74
2023/06/25 07:39:25;;;;;;;13.38;10.98;;;24.10;95.10;;;;;;5032321;28;20041;-71
2023/06/25 07:41:52;;;;;;;15.48;10.70;;;24.20;94.80;;;;;;5032244;28;20418;-71
2023/06/25 07:44:18;;;;;;;11.57;10.30;;;24.20;94.30;;;;;;5032299;28;20048;-71
2023/06/25 07:46:43;;;;;;;13.57;9.57;;;24.30;93.90;;;;;;5032813;28;20037;-71
2023/06/25 07:49:09;;;;;;;10.27;9.23;;;24.40;94.00;;;;;;5032177;28;20033;-71
2023/06/25 07:51:34;;;;;;;11.75;10.55;;;24.50;94.10;;;;;;5032191;28;20143;-71
2023/06/25 07:54:00;;;;;;;12.90;10.90;;;24.70;93.60;;;;;;5032437;28;20045;-71
2023/06/25 07:56:25;;;;;;;10.80;9.27;;;24.80;93.10;;;;;;5033235;28;20123;-71
2023/06/25 07:58:51;;;;;;;14.05;10.65;;;24.90;93.50;;;;;;5015657;28;20558;-71
2023/06/25 08:01:17;;;;;;;10.88;9.52;;;24.90;92.70;;;;;;5033418;28;20095;-71
2023/06/25 08:03:42;;;;;;;9.38;8.13;;;25.00;92.70;;;;;;5031968;28;20118;-71
2023/06/25 08:06:08;;;;;;;13.60;9.48;;;25.20;92.10;;;;;;5031870;28;20049;-71
2023/06/25 08:08:33;;;;;;;10.13;9.00;;;25.30;92.30;;;;;;5031929;28;20041;-71
2023/06/25 08:10:59;;;;;;;9.80;8.60;;;25.40;91.50;;;;;;5031894;28;20047;-71
2023/06/25 08:13:25;;;;;;;10.80;8.68;;;25.50;91.40;;;;;;5031887;28;20037;-71
2023/06/25 08:15:50;;;;;;;10.63;8.05;;;25.70;91.00;;;;;;5033034;28;20049;-71
2023/06/25 08:18:16;;;;;;;11.75;8.38;;;25.80;90.50;;;;;;5032067;28;20125;-71
2023/06/25 08:20:47;;;;;;;13.23;9.13;;;25.80;90.10;;;;;;5031704;28;20088;-71
2023/06/25 08:23:13;;;;;;;11.07;8.38;;;25.90;88.90;;;;;;5031795;28;20038;-71
2023/06/25 08:25:39;;;;;;;9.13;7.57;;;26.00;87.90;;;;;;5031642;28;20108;-71
2023/06/25 08:28:04;;;;;;;14.07;8.45;;;26.10;86.90;;;;;;5031775;28;20075;-71
2023/06/25 08:30:30;;;;;;;9.23;7.75;;;26.30;85.50;;;;;;5032993;28;20116;-71
2023/06/25 08:32:55;;;;;;;8.85;6.70;;;26.40;85.70;;;;;;5015242;28;20560;-71
2023/06/25 08:35:21;;;;;;;7.25;5.70;;;26.50;81.90;;;;;;5031915;28;20073;-71
2023/06/25 08:37:47;;;;;;;8.90;5.80;;;26.60;79.90;;;;;;5015266;28;20044;-71
2023/06/25 08:40:13;;;;;;;7.15;6.25;;;26.70;78.20;;;;;;5031600;28;20127;-71
2023/06/25 08:42:42;;;;;;;7.60;6.80;;;26.80;77.00;;;;;;5033074;28;20053;-72
2023/06/25 08:45:09;;;;;;;9.52;6.35;;;26.90;76.90;;;;;;5031551;28;20041;-71
2023/06/25 08:47:39;;;;;;;9.73;7.70;;;27.10;77.30;;;;;;5031494;28;20048;-71
2023/06/25 08:50:09;;;;;;;7.43;6.72;;;27.10;74.60;;;;;;5031556;28;20037;-71
2023/06/25 08:52:36;;;;;;;9.52;6.38;;;27.20;75.70;;;;;;5032996;28;20037;-71
2023/06/25 08:55:02;;;;;;;7.57;5.47;;;27.30;75.60;;;;;;5031462;28;20091;-71
2023/06/25 08:57:28;;;;;;;7.63;4.85;;;27.40;74.90;;;;;;5033783;28;20049;-70
2023/06/25 08:59:54;;;;;;;8.93;5.95;;;27.40;71.90;;;;;;5037315;28;20111;-70
2023/06/25 09:02:19;;;;;;;12.23;6.82;;;27.60;71.70;;;;;;5035633;28;20042;-71
2023/06/25 09:04:48;;;;;;;5.53;5.03;;;27.70;71.90;;;;;;5037022;28;20044;-71
2023/06/25 09:07:15;;;;;;;6.90;4.10;;;27.80;70.60;;;;;;5035080;28;20514;-70
2023/06/25 09:09:42;;;;;;;8.52;4.78;;;27.90;67.10;;;;;;5035060;28;20494;-71
2023/06/25 09:12:09;;;;;;;5.50;4.90;;;28.00;66.70;;;;;;5035099;28;20087;-71
2023/06/25 09:14:35;;;;;;;4.40;3.72;;;28.10;66.70;;;;;;5036262;28;20041;-71
2023/06/25 09:17:02;;;;;;;5.03;3.40;;;28.30;66.10;;;;;;5035199;28;20041;-71
2023/06/25 09:19:28;;;;;;;6.25;4.40;;;28.40;65.20;;;;;;5034953;28;20045;-71
2023/06/25 09:21:54;;;;;;;5.43;4.25;;;28.50;62.80;;;;;;5036326;28;20095;-71
2023/06/25 09:24:21;;;;;;;8.48;4.43;;;28.60;61.20;;;;;;5034822;28;20083;-71
2023/06/25 09:26:46;;;;;;;5.60;4.25;;;28.70;62.00;;;;;;5035028;28;20041;-71
2023/06/25 09:29:12;;;;;;;9.43;5.28;;;28.80;62.60;;;;;;5034806;28;20033;-71
2023/06/25 09:31:42;;;;;;;9.05;4.93;;;29.00;61.20;;;;;;5034686;28;20441;-71
2023/06/25 09:34:07;;;;;;;6.57;4.50;;;29.10;60.70;;;;;;5034638;28;20045;-71
2023/06/25 09:36:35;;;;;;;8.43;5.13;;;29.20;60.60;;;;;;5018358;28;20094;-70
2023/06/25 09:39:02;;;;;;;6.05;3.85;;;29.20;59.20;;;;;;5036087;28;20081;-70
2023/06/25 09:41:28;;;;;;;8.80;4.60;;;29.30;59.90;;;;;;5034692;28;20107;-71
2023/06/25 09:43:56;;;;;;;7.60;5.03;;;29.40;59.10;;;;;;5035740;28;20469;-71
2023/06/25 09:46:23;;;;;;;4.72;3.90;;;29.60;57.60;;;;;;5034684;28;20079;-71
2023/06/25 09:48:51;;;;;;;6.10;4.97;;;29.60;58.10;;;;;;5035785;28;20483;-71
2023/06/25 09:51:21;;;;;;;7.00;4.18;;;29.70;58.00;;;;;;5034365;28;20076;-71
2023/06/25 09:53:49;;;;;;;6.13;4.70;;;29.70;58.30;;;;;;5035841;28;20052;-71
2023/06/25 09:56:17;;;;;;;7.10;4.50;;;29.90;57.30;;;;;;5034078;28;20390;-71
2023/06/25 09:58:43;;;;;;;6.68;4.65;;;30.00;57.50;;;;;;5034295;28;20049;-71
2023/06/25 10:01:09;;;;;;;4.78;4.20;;;30.10;56.30;;;;;;5035552;28;20053;-71
2023/06/25 10:03:36;;;;;;;5.70;4.25;;;30.20;56.90;;;;;;5034399;28;20401;-71
2023/06/25 10:06:02;;;;;;;7.43;5.00;;;30.40;56.40;;;;;;5035744;28;20041;-70
2023/06/25 10:08:28;;;;;;;6.45;4.65;;;30.50;54.50;;;;;;5034643;28;20095;-70
2023/06/25 10:10:58;;;;;;;7.82;4.13;;;30.50;54.30;;;;;;5034698;28;20409;-71
2023/06/25 10:13:25;;;;;;;6.55;4.10;;;30.60;54.90;;;;;;5034372;28;20072;-71
2023/06/25 10:16:02;;;;;;;5.32;4.10;;;30.60;54.90;;;;;;5035521;28;20045;-71
2023/06/25 10:18:28;;;;;;;6.57;4.15;;;30.70;53.80;;;;;;5035171;28;20116;-71
2023/06/25 10:20:58;;;;;;;7.63;3.58;;;30.80;54.20;;;;;;5034940;28;20089;-71
2023/06/25 10:23:24;;;;;;;5.88;3.95;;;30.90;54.50;;;;;;5033777;28;20544;-70
2023/06/25 10:25:55;;;;;;;6.97;3.95;;;31.00;53.20;;;;;;5033566;28;20041;-71
2023/06/25 10:28:29;;;;;;;5.43;3.30;;;31.10;51.80;;;;;;5033749;28;20048;-71
2023/06/25 10:30:54;;;;;;;4.93;3.97;;;31.30;52.60;;;;;;5035237;28;20065;-71
2023/06/25 10:33:20;;;;;;;5.60;4.07;;;31.40;52.30;;;;;;5035321;28;20425;-70
2023/06/25 10:35:55;;;;;;;4.80;3.85;;;31.40;51.20;;;;;;5033667;28;20041;-71
2023/06/25 10:38:21;;;;;;;6.72;4.07;;;31.60;51.30;;;;;;5034636;28;20073;-71
2023/06/25 10:40:47;;;;;;;5.90;3.92;;;31.70;50.70;;;;;;5034584;28;20100;-71
2023/06/25 10:43:17;;;;;;;5.57;3.70;;;31.80;49.90;;;;;;5033435;28;20371;-71
2023/06/25 10:45:51;;;;;;;5.18;3.38;;;31.90;49.80;;;;;;5017029;28;20049;-71
2023/06/25 10:48:17;;;;;;;8.02;3.97;;;32.00;50.90;;;;;;5034810;28;20033;-71
2023/06/25 10:50:43;;;;;;;6.57;3.80;;;32.10;49.80;;;;;;5033509;28;20045;-70
2023/06/25 10:53:14;;;;;;;6.47;4.15;;;32.20;49.50;;;;;;5034414;28;20124;-71
2023/06/25 10:55:43;;;;;;;5.28;4.05;;;32.30;48.60;;;;;;5032904;28;20041;-70
2023/06/25 10:58:13;;;;;;;5.75;4.50;;;32.40;48.90;;;;;;5033101;28;20140;-71
2023/06/25 11:00:38;;;;;;;5.60;3.92;;;32.30;47.80;;;;;;5033230;28;20080;-71
2023/06/25 11:03:04;;;;;;;5.82;4.20;;;32.40;48.10;;;;;;5033269;28;20144;-71
2023/06/25 11:05:41;;;;;;;8.55;4.15;;;32.50;48.60;;;;;;5032933;28;20494;-70
2023/06/25 11:08:07;;;;;;;9.68;4.07;;;32.60;47.60;;;;;;5034447;28;20037;-70
2023/06/25 11:10:35;;;;;;;6.00;4.47;;;32.80;47.30;;;;;;5034065;28;20043;-71
2023/06/25 11:13:01;;;;;;;5.80;4.22;;;32.80;45.70;;;;;;5034039;28;20033;-71
2023/06/25 11:15:33;;;;;;;10.25;4.80;;;32.90;46.00;;;;;;5032944;28;20068;-71
2023/06/25 11:18:00;;;;;;;29.08;5.50;;;32.90;47.70;;;;;;5032720;28;20048;-71
2023/06/25 11:20:27;;;;;;;8.57;4.20;;;33.00;47.80;;;;;;5033384;28;20073;-71
2023/06/25 11:22:57;;;;;;;7.68;4.07;;;33.20;46.50;;;;;;5032474;28;20045;-72
2023/06/25 11:25:22;;;;;;;7.53;4.13;;;33.30;46.20;;;;;;5032563;28;20041;-69
2023/06/25 11:27:59;;;;;;;6.32;3.72;;;33.40;44.80;;;;;;5032627;28;20446;-70
2023/06/25 11:30:27;;;;;;;4.72;3.80;;;33.50;45.20;;;;;;5033162;28;20041;-70
2023/06/25 11:32:53;;;;;;;5.38;3.60;;;33.60;45.20;;;;;;5032713;28;20053;-69
2023/06/25 11:35:19;;;;;;;7.45;4.32;;;33.60;45.40;;;;;;5032331;28;20394;-69
2023/06/25 11:37:49;;;;;;;6.45;4.10;;;33.70;43.80;;;;;;5032632;28;20045;-69
2023/06/25 11:40:25;;;;;;;6.45;3.60;;;33.80;44.40;;;;;;5033602;28;20044;-69
2023/06/25 11:42:52;;;;;;;7.10;4.03;;;33.80;43.80;;;;;;5033714;28;20038;-69
2023/06/25 11:45:19;;;;;;;4.65;3.38;;;33.80;44.30;;;;;;5033466;28;20041;-69
2023/06/25 11:47:46;;;;;;;5.03;3.50;;;33.90;44.80;;;;;;5033908;28;20029;-69
2023/06/25 11:50:12;;;;;;;4.63;3.33;;;33.90;44.00;;;;;;5032198;28;20412;-69
2023/06/25 11:52:38;;;;;;;3.90;3.50;;;34.00;45.20;;;;;;5033414;28;20512;-69
2023/06/25 11:55:08;;;;;;;5.15;3.95;;;34.00;44.10;;;;;;5031973;28;20136;-69
2023/06/25 11:57:34;;;;;;;6.28;3.45;;;34.10;43.70;;;;;;5033408;28;20057;-69
2023/06/25 11:59:59;;;;;;;5.05;3.33;;;34.30;44.10;;;;;;5032335;28;20398;-69
2023/06/25 12:02:25;;;;;;;5.05;3.28;;;34.20;43.20;;;;;;5032038;28;20498;-69
2023/06/25 12:04:52;;;;;;;3.67;3.25;;;34.30;43.50;;;;;;5032613;28;20088;-69
2023/06/25 12:07:18;;;;;;;4.55;3.30;;;34.30;43.50;;;;;;5032160;28;20095;-69
2023/06/25 12:09:43;;;;;;;4.45;3.33;;;34.40;43.50;;;;;;5031927;28;20441;-69
2023/06/25 12:12:09;;;;;;;5.72;3.65;;;34.50;44.20;;;;;;5031915;28;20060;-69
2023/06/25 12:14:35;;;;;;;3.97;3.58;;;34.50;43.90;;;;;;5033685;28;20041;-69
2023/06/25 12:17:01;;;;;;;4.43;3.53;;;34.50;43.80;;;;;;5031785;28;20410;-69
2023/06/25 12:19:27;;;;;;;4.97;3.22;;;34.60;44.60;;;;;;5015412;28;20037;-70
2023/06/25 12:21:58;;;;;;;6.10;3.67;;;34.60;43.60;;;;;;5033364;28;20084;-72
2023/06/25 12:24:24;;;;;;;5.65;3.15;;;34.50;42.80;;;;;;5031825;28;20042;-70
2023/06/25 12:26:50;;;;;;;5.07;3.47;;;34.50;43.60;;;;;;5033199;28;20041;-70
2023/06/25 12:29:15;;;;;;;3.90;2.90;;;34.60;43.80;;;;;;5033233;28;20037;-70
2023/06/25 12:31:41;;;;;;;5.35;3.13;;;34.70;43.80;;;;;;5032247;28;20104;-70